sensor_id;sensor_type;location;lat;lon;timestamp;pressure;altitude;pressure_sealevel;temperature;humidity
66880;BME280;53789;51.392;10.234;2023-02-14T00:00:13;100200.69;;;0.37;82.03
66880;BME280;53789;51.392;10.234;2023-02-14T00:00:33;100199.00;;;0.36;80.69
66880;BME280;53789;51.392;10.234;2023-02-14T00:00:53;100206.31;;;0.35;81.31
66880;BME280;53789;51.392;10.234;2023-02-14T00:01:14;100205.47;;;0.35;80.67
66880;BME280;53789;51.392;10.234;2023-02-14T00:01:34;100204.63;;;0.34;81.02
66880;BME280;53789;51.392;10.234;2023-02-14T00:01:55;100200.91;;;0.35;81.59
66880;BME280;53789;51.392;10.234;2023-02-14T00:02:16;100206.50;;;0.34;80.97
66880;BME280;53789;51.392;10.234;2023-02-14T00:02:36;100210.03;;;0.34;81.23
66880;BME280;53789;51.392;10.234;2023-02-14T00:02:56;100206.50;;;0.34;81.88
66880;BME280;53789;51.392;10.234;2023-02-14T00:03:17;100202.97;;;0.33;81.16
66880;BME280;53789;51.392;10.234;2023-02-14T00:03:37;100202.09;;;0.33;82.17
66880;BME280;53789;51.392;10.234;2023-02-14T00:03:58;100206.69;;;0.32;82.03
66880;BME280;53789;51.392;10.234;2023-02-14T00:04:18;100204.00;;;0.32;81.35
66880;BME280;53789;51.392;10.234;2023-02-14T00:04:39;100197.75;;;0.32;82.35
66880;BME280;53789;51.392;10.234;2023-02-14T00:04:59;100204.00;;;0.32;81.55
66880;BME280;53789;51.392;10.234;2023-02-14T00:05:19;100195.88;;;0.32;80.80
66880;BME280;53789;51.392;10.234;2023-02-14T00:05:40;100199.59;;;0.31;81.24
66880;BME280;53789;51.392;10.234;2023-02-14T00:06:10;100198.75;;;0.31;81.48
66880;BME280;53789;51.392;10.234;2023-02-14T00:06:32;100203.16;;;0.32;80.49
66880;BME280;53789;51.392;10.234;2023-02-14T00:06:52;100200.44;;;0.32;80.31
66880;BME280;53789;51.392;10.234;2023-02-14T00:07:13;100200.44;;;0.32;81.32
66880;BME280;53789;51.392;10.234;2023-02-14T00:07:33;100196.88;;;0.31;81.00
66880;BME280;53789;51.392;10.234;2023-02-14T00:07:53;100198.75;;;0.31;81.73
66880;BME280;53789;51.392;10.234;2023-02-14T00:08:14;100205.00;;;0.31;81.01
66880;BME280;53789;51.392;10.234;2023-02-14T00:08:35;100197.06;;;0.30;80.58
66880;BME280;53789;51.392;10.234;2023-02-14T00:08:55;100200.63;;;0.30;80.67
66880;BME280;53789;51.392;10.234;2023-02-14T00:09:18;100198.75;;;0.31;80.26
66880;BME280;53789;51.392;10.234;2023-02-14T00:09:38;100201.66;;;0.29;80.66
66880;BME280;53789;51.392;10.234;2023-02-14T00:09:59;100189.97;;;0.29;80.58
66880;BME280;53789;51.392;10.234;2023-02-14T00:10:19;100198.97;;;0.29;80.43
66880;BME280;53789;51.392;10.234;2023-02-14T00:10:39;100194.56;;;0.28;81.28
66880;BME280;53789;51.392;10.234;2023-02-14T00:11:00;100194.56;;;0.28;80.86
66880;BME280;53789;51.392;10.234;2023-02-14T00:11:21;100182.91;;;0.28;81.24
66880;BME280;53789;51.392;10.234;2023-02-14T00:11:42;100197.28;;;0.28;80.58
66880;BME280;53789;51.392;10.234;2023-02-14T00:12:03;100183.94;;;0.27;80.77
66880;BME280;53789;51.392;10.234;2023-02-14T00:12:23;100197.47;;;0.27;81.34
66880;BME280;53789;51.392;10.234;2023-02-14T00:12:44;100192.06;;;0.27;80.79
66880;BME280;53789;51.392;10.234;2023-02-14T00:13:04;100194.75;;;0.27;81.30
66880;BME280;53789;51.392;10.234;2023-02-14T00:13:24;100198.47;;;0.26;80.89
66880;BME280;53789;51.392;10.234;2023-02-14T00:13:45;100200.38;;;0.25;81.11
66880;BME280;53789;51.392;10.234;2023-02-14T00:14:06;100201.19;;;0.26;80.23
66880;BME280;53789;51.392;10.234;2023-02-14T00:14:26;100193.94;;;0.26;80.56
66880;BME280;53789;51.392;10.234;2023-02-14T00:14:47;100193.94;;;0.26;79.93
66880;BME280;53789;51.392;10.234;2023-02-14T00:15:08;100194.13;;;0.25;80.05
66880;BME280;53789;51.392;10.234;2023-02-14T00:15:29;100194.31;;;0.23;80.20
66880;BME280;53789;51.392;10.234;2023-02-14T00:15:49;100197.03;;;0.23;80.08
66880;BME280;53789;51.392;10.234;2023-02-14T00:16:09;100187.84;;;0.24;80.54
66880;BME280;53789;51.392;10.234;2023-02-14T00:16:31;100193.47;;;0.22;81.35
66880;BME280;53789;51.392;10.234;2023-02-14T00:16:51;100196.16;;;0.22;80.75
66880;BME280;53789;51.392;10.234;2023-02-14T00:17:12;100194.50;;;0.21;80.48
66880;BME280;53789;51.392;10.234;2023-02-14T00:17:32;100187.22;;;0.22;80.27
66880;BME280;53789;51.392;10.234;2023-02-14T00:17:55;100197.22;;;0.21;80.00
66880;BME280;53789;51.392;10.234;2023-02-14T00:18:15;100190.13;;;0.20;80.86
66880;BME280;53789;51.392;10.234;2023-02-14T00:18:36;100191.13;;;0.19;80.81
66880;BME280;53789;51.392;10.234;2023-02-14T00:18:56;100191.13;;;0.19;81.10
66880;BME280;53789;51.392;10.234;2023-02-14T00:19:18;100184.91;;;0.19;80.24
66880;BME280;53789;51.392;10.234;2023-02-14T00:19:39;100193.84;;;0.19;80.92
66880;BME280;53789;51.392;10.234;2023-02-14T00:19:59;100193.84;;;0.19;80.76
66880;BME280;53789;51.392;10.234;2023-02-14T00:20:22;100195.91;;;0.17;80.71
66880;BME280;53789;51.392;10.234;2023-02-14T00:20:43;100192.16;;;0.18;81.38
66880;BME280;53789;51.392;10.234;2023-02-14T00:21:03;100194.84;;;0.18;81.10
66880;BME280;53789;51.392;10.234;2023-02-14T00:21:24;100197.41;;;0.20;80.66
66880;BME280;53789;51.392;10.234;2023-02-14T00:21:45;100196.53;;;0.19;80.70
66880;BME280;53789;51.392;10.234;2023-02-14T00:22:05;100198.22;;;0.20;81.62
66880;BME280;53789;51.392;10.234;2023-02-14T00:22:26;100192.81;;;0.20;81.36
66880;BME280;53789;51.392;10.234;2023-02-14T00:22:46;100191.81;;;0.21;81.74
66880;BME280;53789;51.392;10.234;2023-02-14T00:23:07;100194.50;;;0.21;80.98
66880;BME280;53789;51.392;10.234;2023-02-14T00:23:27;100189.91;;;0.22;80.32
66880;BME280;53789;51.392;10.234;2023-02-14T00:23:47;100197.03;;;0.23;81.62
66880;BME280;53789;51.392;10.234;2023-02-14T00:24:11;100193.66;;;0.21;81.08
66880;BME280;53789;51.392;10.234;2023-02-14T00:24:32;100186.38;;;0.21;81.59
66880;BME280;53789;51.392;10.234;2023-02-14T00:24:52;100198.03;;;0.22;80.79
66880;BME280;53789;51.392;10.234;2023-02-14T00:25:12;100193.47;;;0.22;80.42
66880;BME280;53789;51.392;10.234;2023-02-14T00:25:33;100194.50;;;0.21;81.32
66880;BME280;53789;51.392;10.234;2023-02-14T00:25:53;100199.06;;;0.21;81.16
66880;BME280;53789;51.392;10.234;2023-02-14T00:26:14;100199.91;;;0.21;80.79
66880;BME280;53789;51.392;10.234;2023-02-14T00:26:35;100190.94;;;0.21;80.70
66880;BME280;53789;51.392;10.234;2023-02-14T00:26:55;100199.91;;;0.21;80.53
66880;BME280;53789;51.392;10.234;2023-02-14T00:27:16;100195.53;;;0.20;80.58
66880;BME280;53789;51.392;10.234;2023-02-14T00:27:36;100194.69;;;0.20;81.31
66880;BME280;53789;51.392;10.234;2023-02-14T00:27:56;100200.94;;;0.20;80.15
66880;BME280;53789;51.392;10.234;2023-02-14T00:28:17;100193.84;;;0.19;80.70
66880;BME280;53789;51.392;10.234;2023-02-14T00:28:37;100197.75;;;0.17;80.64
66880;BME280;53789;51.392;10.234;2023-02-14T00:28:57;100199.63;;;0.16;80.75
66880;BME280;53789;51.392;10.234;2023-02-14T00:29:22;100200.66;;;0.15;80.36
66880;BME280;53789;51.392;10.234;2023-02-14T00:29:42;100199.00;;;0.14;81.15
66880;BME280;53789;51.392;10.234;2023-02-14T00:30:03;100193.59;;;0.14;80.24
66880;BME280;53789;51.392;10.234;2023-02-14T00:30:24;100194.59;;;0.13;80.54
66880;BME280;53789;51.392;10.234;2023-02-14T00:30:44;100192.09;;;0.12;80.78
66880;BME280;53789;51.392;10.234;2023-02-14T00:31:04;100198.34;;;0.12;81.01
66880;BME280;53789;51.392;10.234;2023-02-14T00:31:25;100193.78;;;0.13;80.55
66880;BME280;53789;51.392;10.234;2023-02-14T00:31:45;100195.63;;;0.12;81.03
66880;BME280;53789;51.392;10.234;2023-02-14T00:32:06;100196.69;;;0.11;79.87
66880;BME280;53789;51.392;10.234;2023-02-14T00:32:27;100195.63;;;0.12;80.62
66880;BME280;53789;51.392;10.234;2023-02-14T00:32:47;100200.22;;;0.12;81.37
66880;BME280;53789;51.392;10.234;2023-02-14T00:33:07;100193.97;;;0.11;81.00
66880;BME280;53789;51.392;10.234;2023-02-14T00:33:27;100198.34;;;0.12;80.62
66880;BME280;53789;51.392;10.234;2023-02-14T00:33:48;100191.06;;;0.13;81.11
66880;BME280;53789;51.392;10.234;2023-02-14T00:34:09;100196.47;;;0.13;80.33
66880;BME280;53789;51.392;10.234;2023-02-14T00:34:29;100193.78;;;0.13;80.35
66880;BME280;53789;51.392;10.234;2023-02-14T00:34:50;100199.19;;;0.13;80.17
66880;BME280;53789;51.392;10.234;2023-02-14T00:35:10;100197.31;;;0.13;80.56
66880;BME280;53789;51.392;10.234;2023-02-14T00:35:30;100198.13;;;0.14;80.92
66880;BME280;53789;51.392;10.234;2023-02-14T00:35:51;100202.72;;;0.13;80.61
66880;BME280;53789;51.392;10.234;2023-02-14T00:36:11;100202.72;;;0.13;80.74
66880;BME280;53789;51.392;10.234;2023-02-14T00:36:32;100195.44;;;0.14;81.49
66880;BME280;53789;51.392;10.234;2023-02-14T00:36:52;100191.06;;;0.13;80.90
66880;BME280;53789;51.392;10.234;2023-02-14T00:37:13;100201.91;;;0.13;80.21
66880;BME280;53789;51.392;10.234;2023-02-14T00:37:33;100195.44;;;0.14;81.02
66880;BME280;53789;51.392;10.234;2023-02-14T00:37:54;100197.31;;;0.13;80.36
66880;BME280;53789;51.392;10.234;2023-02-14T00:38:14;100191.06;;;0.13;81.15
66880;BME280;53789;51.392;10.234;2023-02-14T00:38:34;100194.59;;;0.13;81.25
66880;BME280;53789;51.392;10.234;2023-02-14T00:38:55;100190.22;;;0.12;80.61
66880;BME280;53789;51.392;10.234;2023-02-14T00:39:17;100195.63;;;0.12;80.42
66880;BME280;53789;51.392;10.234;2023-02-14T00:39:37;100197.50;;;0.12;80.60
66880;BME280;53789;51.392;10.234;2023-02-14T00:39:58;100191.47;;;0.10;80.58
66880;BME280;53789;51.392;10.234;2023-02-14T00:40:18;100194.16;;;0.10;80.12
66880;BME280;53789;51.392;10.234;2023-02-14T00:40:38;100196.88;;;0.10;80.92
66880;BME280;53789;51.392;10.234;2023-02-14T00:40:58;100196.19;;;0.08;80.94
66880;BME280;53789;51.392;10.234;2023-02-14T00:41:19;100196.38;;;0.06;80.11
66880;BME280;53789;51.392;10.234;2023-02-14T00:41:41;100196.38;;;0.06;80.33
66880;BME280;53789;51.392;10.234;2023-02-14T00:42:01;100193.06;;;0.04;81.14
66880;BME280;53789;51.392;10.234;2023-02-14T00:42:22;100194.72;;;0.05;80.43
66880;BME280;53789;51.392;10.234;2023-02-14T00:42:42;100192.19;;;0.03;80.85
66880;BME280;53789;51.392;10.234;2023-02-14T00:43:03;100197.78;;;0.02;80.81
66880;BME280;53789;51.392;10.234;2023-02-14T00:43:23;100192.38;;;0.02;80.35
66880;BME280;53789;51.392;10.234;2023-02-14T00:43:45;100194.25;;;0.01;79.92
66880;BME280;53789;51.392;10.234;2023-02-14T00:44:07;100190.06;;;-0.01;79.83
66880;BME280;53789;51.392;10.234;2023-02-14T00:44:28;100194.66;;;-0.02;80.82
66880;BME280;53789;51.392;10.234;2023-02-14T00:44:48;100197.34;;;-0.02;80.20
66880;BME280;53789;51.392;10.234;2023-02-14T00:45:08;100192.94;;;-0.03;80.88
66880;BME280;53789;51.392;10.234;2023-02-14T00:45:29;100194.00;;;-0.04;80.01
66880;BME280;53789;51.392;10.234;2023-02-14T00:45:50;100186.72;;;-0.03;81.21
66880;BME280;53789;51.392;10.234;2023-02-14T00:46:10;100191.31;;;-0.04;80.49
66880;BME280;53789;51.392;10.234;2023-02-14T00:46:31;100201.25;;;-0.04;80.96
66880;BME280;53789;51.392;10.234;2023-02-14T00:46:51;100195.84;;;-0.04;80.86
66880;BME280;53789;51.392;10.234;2023-02-14T00:47:11;100192.50;;;-0.06;80.09
66880;BME280;53789;51.392;10.234;2023-02-14T00:47:32;100195.22;;;-0.06;80.10
66880;BME280;53789;51.392;10.234;2023-02-14T00:47:52;100187.94;;;-0.06;80.65
66880;BME280;53789;51.392;10.234;2023-02-14T00:48:12;100189.63;;;-0.05;81.36
66880;BME280;53789;51.392;10.234;2023-02-14T00:48:33;100189.63;;;-0.05;81.27
66880;BME280;53789;51.392;10.234;2023-02-14T00:48:53;100193.16;;;-0.04;80.85
66880;BME280;53789;51.392;10.234;2023-02-14T00:49:13;100193.16;;;-0.04;80.37
66880;BME280;53789;51.392;10.234;2023-02-14T00:49:33;100194.84;;;-0.03;80.51
66880;BME280;53789;51.392;10.234;2023-02-14T00:49:54;100191.31;;;-0.04;80.94
66880;BME280;53789;51.392;10.234;2023-02-14T00:50:14;100194.84;;;-0.03;81.21
66880;BME280;53789;51.392;10.234;2023-02-14T00:50:34;100183.19;;;-0.04;81.18
66880;BME280;53789;51.392;10.234;2023-02-14T00:50:55;100191.31;;;-0.04;81.27
66880;BME280;53789;51.392;10.234;2023-02-14T00:51:16;100188.41;;;-0.02;80.82
66880;BME280;53789;51.392;10.234;2023-02-14T00:51:37;100189.41;;;-0.03;80.62
66880;BME280;53789;51.392;10.234;2023-02-14T00:51:58;100186.72;;;-0.03;80.00
66880;BME280;53789;51.392;10.234;2023-02-14T00:52:18;100184.00;;;-0.03;80.43
66880;BME280;53789;51.392;10.234;2023-02-14T00:52:38;100189.41;;;-0.03;80.05
66880;BME280;53789;51.392;10.234;2023-02-14T00:52:59;100184.00;;;-0.03;79.83
66880;BME280;53789;51.392;10.234;2023-02-14T00:53:19;100182.31;;;-0.04;80.86
66880;BME280;53789;51.392;10.234;2023-02-14T00:53:40;100188.59;;;-0.04;80.28
66880;BME280;53789;51.392;10.234;2023-02-14T00:54:00;100181.69;;;-0.06;79.67
66880;BME280;53789;51.392;10.234;2023-02-14T00:54:21;100180.00;;;-0.07;80.59
66880;BME280;53789;51.392;10.234;2023-02-14T00:54:41;100182.72;;;-0.07;80.75
66880;BME280;53789;51.392;10.234;2023-02-14T00:55:01;100185.41;;;-0.07;80.87
66880;BME280;53789;51.392;10.234;2023-02-14T00:55:21;100183.72;;;-0.08;80.25
66880;BME280;53789;51.392;10.234;2023-02-14T00:55:44;100181.22;;;-0.10;80.62
66880;BME280;53789;51.392;10.234;2023-02-14T00:56:04;100187.47;;;-0.09;81.03
66880;BME280;53789;51.392;10.234;2023-02-14T00:56:25;100188.50;;;-0.10;80.45
66880;BME280;53789;51.392;10.234;2023-02-14T00:56:45;100192.03;;;-0.10;80.72
66880;BME280;53789;51.392;10.234;2023-02-14T00:57:05;100185.78;;;-0.10;80.52
66880;BME280;53789;51.392;10.234;2023-02-14T00:57:26;100184.28;;;-0.13;80.80
66880;BME280;53789;51.392;10.234;2023-02-14T00:57:46;100187.88;;;-0.13;80.78
66880;BME280;53789;51.392;10.234;2023-02-14T00:58:06;100187.00;;;-0.13;81.53
66880;BME280;53789;51.392;10.234;2023-02-14T00:58:27;100192.59;;;-0.15;80.17
66880;BME280;53789;51.392;10.234;2023-02-14T00:58:47;100187.38;;;-0.16;80.01
66880;BME280;53789;51.392;10.234;2023-02-14T00:59:07;100192.16;;;-0.18;80.56
66880;BME280;53789;51.392;10.234;2023-02-14T00:59:28;100191.09;;;-0.17;80.46
66880;BME280;53789;51.392;10.234;2023-02-14T00:59:48;100191.09;;;-0.17;81.01
66880;BME280;53789;51.392;10.234;2023-02-14T01:00:09;100193.16;;;-0.19;81.05
66880;BME280;53789;51.392;10.234;2023-02-14T01:00:29;100191.28;;;-0.19;81.39
66880;BME280;53789;51.392;10.234;2023-02-14T01:00:51;100197.75;;;-0.20;81.04
66880;BME280;53789;51.392;10.234;2023-02-14T01:01:12;100187.75;;;-0.19;80.68
66880;BME280;53789;51.392;10.234;2023-02-14T01:01:33;100185.06;;;-0.19;80.80
66880;BME280;53789;51.392;10.234;2023-02-14T01:01:54;100194.84;;;-0.18;80.44
66880;BME280;53789;51.392;10.234;2023-02-14T01:02:14;100196.50;;;-0.17;81.67
66880;BME280;53789;51.392;10.234;2023-02-14T01:02:34;100193.81;;;-0.17;81.17
66880;BME280;53789;51.392;10.234;2023-02-14T01:02:55;100189.44;;;-0.18;80.67
66880;BME280;53789;51.392;10.234;2023-02-14T01:03:15;100195.03;;;-0.20;81.34
66880;BME280;53789;51.392;10.234;2023-02-14T01:03:37;100192.34;;;-0.20;80.10
66880;BME280;53789;51.392;10.234;2023-02-14T01:03:57;100187.94;;;-0.21;80.83
66880;BME280;53789;51.392;10.234;2023-02-14T01:04:18;100187.13;;;-0.21;80.52
66880;BME280;53789;51.392;10.234;2023-02-14T01:04:38;100183.56;;;-0.22;81.10
66880;BME280;53789;51.392;10.234;2023-02-14T01:04:58;100192.34;;;-0.20;80.81
66880;BME280;53789;51.392;10.234;2023-02-14T01:05:18;100195.03;;;-0.20;81.19
66880;BME280;53789;51.392;10.234;2023-02-14T01:05:39;100197.28;;;-0.23;80.77
66880;BME280;53789;51.392;10.234;2023-02-14T01:06:00;100193.75;;;-0.24;81.00
66880;BME280;53789;51.392;10.234;2023-02-14T01:06:20;100193.75;;;-0.24;80.58
66880;BME280;53789;51.392;10.234;2023-02-14T01:06:40;100190.22;;;-0.24;81.60
66880;BME280;53789;51.392;10.234;2023-02-14T01:07:01;100192.06;;;-0.25;80.32
66880;BME280;53789;51.392;10.234;2023-02-14T01:07:21;100198.50;;;-0.26;81.27
66880;BME280;53789;51.392;10.234;2023-02-14T01:07:41;100200.16;;;-0.25;80.80
66880;BME280;53789;51.392;10.234;2023-02-14T01:08:02;100201.03;;;-0.24;82.02
66880;BME280;53789;51.392;10.234;2023-02-14T01:08:23;100196.44;;;-0.24;81.73
66880;BME280;53789;51.392;10.234;2023-02-14T01:08:43;100192.72;;;-0.23;81.18
66880;BME280;53789;51.392;10.234;2023-02-14T01:09:04;100197.09;;;-0.22;81.52
66880;BME280;53789;51.392;10.234;2023-02-14T01:09:24;100195.03;;;-0.20;82.78
66880;BME280;53789;51.392;10.234;2023-02-14T01:09:44;100191.28;;;-0.19;81.95
66880;BME280;53789;51.392;10.234;2023-02-14T01:10:05;100203.59;;;-0.16;82.55
66880;BME280;53789;51.392;10.234;2023-02-14T01:10:25;100197.38;;;-0.17;82.60
66880;BME280;53789;51.392;10.234;2023-02-14T01:10:46;100197.19;;;-0.15;82.36
66880;BME280;53789;51.392;10.234;2023-02-14T01:11:12;100197.00;;;-0.14;81.97
66880;BME280;53789;51.392;10.234;2023-02-14T01:11:33;100195.13;;;-0.13;82.04
66880;BME280;53789;51.392;10.234;2023-02-14T01:11:54;100198.31;;;-0.09;81.58
66880;BME280;53789;51.392;10.234;2023-02-14T01:12:14;100196.63;;;-0.10;81.00
66880;BME280;53789;51.392;10.234;2023-02-14T01:12:34;100193.53;;;-0.07;82.08
66880;BME280;53789;51.392;10.234;2023-02-14T01:12:55;100198.94;;;-0.07;81.34
66880;BME280;53789;51.392;10.234;2023-02-14T01:13:15;100198.94;;;-0.07;80.97
66880;BME280;53789;51.392;10.234;2023-02-14T01:13:36;100197.91;;;-0.06;80.60
66880;BME280;53789;51.392;10.234;2023-02-14T01:13:57;100197.91;;;-0.06;81.67
66880;BME280;53789;51.392;10.234;2023-02-14T01:14:17;100194.34;;;-0.07;81.53
66880;BME280;53789;51.392;10.234;2023-02-14T01:14:38;100198.75;;;-0.06;81.57
66880;BME280;53789;51.392;10.234;2023-02-14T01:14:58;100192.50;;;-0.06;81.28
66880;BME280;53789;51.392;10.234;2023-02-14T01:15:18;100190.81;;;-0.07;81.34
66880;BME280;53789;51.392;10.234;2023-02-14T01:15:42;100191.66;;;-0.07;80.34
66880;BME280;53789;51.392;10.234;2023-02-14T01:16:08;100191.84;;;-0.08;80.36
66880;BME280;53789;51.392;10.234;2023-02-14T01:16:29;100190.38;;;-0.11;80.16
66880;BME280;53789;51.392;10.234;2023-02-14T01:16:50;100191.19;;;-0.10;80.81
66880;BME280;53789;51.392;10.234;2023-02-14T01:17:10;100193.72;;;-0.09;80.25
66880;BME280;53789;51.392;10.234;2023-02-14T01:17:30;100194.94;;;-0.12;81.15
66880;BME280;53789;51.392;10.234;2023-02-14T01:17:50;100194.09;;;-0.12;80.67
66880;BME280;53789;51.392;10.234;2023-02-14T01:18:11;100193.28;;;-0.13;80.00
66880;BME280;53789;51.392;10.234;2023-02-14T01:18:33;100190.56;;;-0.13;80.78
66880;BME280;53789;51.392;10.234;2023-02-14T01:18:54;100191.59;;;-0.14;81.07
66880;BME280;53789;51.392;10.234;2023-02-14T01:19:15;100188.69;;;-0.12;79.90
66880;BME280;53789;51.392;10.234;2023-02-14T01:19:35;100192.41;;;-0.13;80.67
66880;BME280;53789;51.392;10.234;2023-02-14T01:19:56;100196.16;;;-0.14;80.89
66880;BME280;53789;51.392;10.234;2023-02-14T01:20:16;100192.41;;;-0.13;81.34
66880;BME280;53789;51.392;10.234;2023-02-14T01:20:37;100197.00;;;-0.14;81.03
66880;BME280;53789;51.392;10.234;2023-02-14T01:21:08;100198.69;;;-0.13;81.48
66880;BME280;53789;51.392;10.234;2023-02-14T01:21:31;100197.81;;;-0.13;79.96
66880;BME280;53789;51.392;10.234;2023-02-14T01:21:52;100200.53;;;-0.13;81.02
66880;BME280;53789;51.392;10.234;2023-02-14T01:22:12;100194.94;;;-0.12;80.20
66880;BME280;53789;51.392;10.234;2023-02-14T01:22:36;100192.22;;;-0.12;80.57
66880;BME280;53789;51.392;10.234;2023-02-14T01:22:57;100194.28;;;-0.14;79.36
66880;BME280;53789;51.392;10.234;2023-02-14T01:23:17;100199.69;;;-0.14;80.27
66880;BME280;53789;51.392;10.234;2023-02-14T01:23:38;100189.91;;;-0.15;81.00
66880;BME280;53789;51.392;10.234;2023-02-14T01:24:02;100189.25;;;-0.17;79.92
66880;BME280;53789;51.392;10.234;2023-02-14T01:24:23;100185.53;;;-0.16;80.45
66880;BME280;53789;51.392;10.234;2023-02-14T01:24:43;100194.47;;;-0.15;80.79
66880;BME280;53789;51.392;10.234;2023-02-14T01:25:04;100186.16;;;-0.14;81.71
66880;BME280;53789;51.392;10.234;2023-02-14T01:25:24;100191.59;;;-0.14;80.04
66880;BME280;53789;51.392;10.234;2023-02-14T01:25:44;100194.28;;;-0.14;81.00
66880;BME280;53789;51.392;10.234;2023-02-14T01:26:06;100202.41;;;-0.14;80.50
66880;BME280;53789;51.392;10.234;2023-02-14T01:26:27;100193.66;;;-0.16;80.70
66880;BME280;53789;51.392;10.234;2023-02-14T01:26:48;100189.06;;;-0.15;80.59
66880;BME280;53789;51.392;10.234;2023-02-14T01:27:08;100191.97;;;-0.17;80.91
66880;BME280;53789;51.392;10.234;2023-02-14T01:27:28;100187.56;;;-0.18;80.07
66880;BME280;53789;51.392;10.234;2023-02-14T01:27:49;100188.59;;;-0.19;79.96
66880;BME280;53789;51.392;10.234;2023-02-14T01:28:09;100186.06;;;-0.20;81.14
66880;BME280;53789;51.392;10.234;2023-02-14T01:28:29;100191.28;;;-0.19;80.46
66880;BME280;53789;51.392;10.234;2023-02-14T01:28:49;100201.28;;;-0.19;80.55
66880;BME280;53789;51.392;10.234;2023-02-14T01:29:10;100190.47;;;-0.19;80.26
66880;BME280;53789;51.392;10.234;2023-02-14T01:29:30;100180.66;;;-0.20;81.01
66880;BME280;53789;51.392;10.234;2023-02-14T01:29:50;100181.53;;;-0.20;81.46
66880;BME280;53789;51.392;10.234;2023-02-14T01:30:11;100186.06;;;-0.20;81.59
66880;BME280;53789;51.392;10.234;2023-02-14T01:30:32;100186.06;;;-0.20;81.16
66880;BME280;53789;51.392;10.234;2023-02-14T01:30:52;100186.06;;;-0.20;81.54
66880;BME280;53789;51.392;10.234;2023-02-14T01:31:15;100189.81;;;-0.21;80.59
66880;BME280;53789;51.392;10.234;2023-02-14T01:31:36;100195.22;;;-0.21;80.46
66880;BME280;53789;51.392;10.234;2023-02-14T01:31:56;100191.66;;;-0.22;80.99
66880;BME280;53789;51.392;10.234;2023-02-14T01:32:17;100191.03;;;-0.24;80.51
66880;BME280;53789;51.392;10.234;2023-02-14T01:32:37;100185.44;;;-0.22;80.95
66880;BME280;53789;51.392;10.234;2023-02-14T01:32:57;100186.25;;;-0.22;80.17
66880;BME280;53789;51.392;10.234;2023-02-14T01:33:18;100190.03;;;-0.23;79.49
66880;BME280;53789;51.392;10.234;2023-02-14T01:33:39;100185.63;;;-0.24;79.68
66880;BME280;53789;51.392;10.234;2023-02-14T01:34:00;100191.22;;;-0.25;78.88
66880;BME280;53789;51.392;10.234;2023-02-14T01:34:20;100187.69;;;-0.26;80.82
66880;BME280;53789;51.392;10.234;2023-02-14T01:34:41;100198.50;;;-0.26;79.91
66880;BME280;53789;51.392;10.234;2023-02-14T01:35:01;100195.81;;;-0.26;80.15
66880;BME280;53789;51.392;10.234;2023-02-14T01:35:21;100194.13;;;-0.27;80.19
66880;BME280;53789;51.392;10.234;2023-02-14T01:35:42;100194.31;;;-0.28;81.32
66880;BME280;53789;51.392;10.234;2023-02-14T01:36:02;100191.41;;;-0.27;80.60
66880;BME280;53789;51.392;10.234;2023-02-14T01:36:29;100192.25;;;-0.26;79.97
66880;BME280;53789;51.392;10.234;2023-02-14T01:36:50;100192.44;;;-0.28;80.72
66880;BME280;53789;51.392;10.234;2023-02-14T01:37:11;100191.41;;;-0.27;80.54
66880;BME280;53789;51.392;10.234;2023-02-14T01:37:31;100180.59;;;-0.27;81.32
66880;BME280;53789;51.392;10.234;2023-02-14T01:37:51;100186.00;;;-0.27;79.95
66880;BME280;53789;51.392;10.234;2023-02-14T01:38:12;100192.25;;;-0.26;80.00
66880;BME280;53789;51.392;10.234;2023-02-14T01:38:32;100182.47;;;-0.27;80.60
66880;BME280;53789;51.392;10.234;2023-02-14T01:38:55;100191.41;;;-0.27;80.36
66880;BME280;53789;51.392;10.234;2023-02-14T01:39:16;100190.59;;;-0.27;81.32
66880;BME280;53789;51.392;10.234;2023-02-14T01:39:36;100186.19;;;-0.28;80.22
66880;BME280;53789;51.392;10.234;2023-02-14T01:39:56;100188.03;;;-0.29;80.22
66880;BME280;53789;51.392;10.234;2023-02-14T01:40:17;100189.72;;;-0.28;80.52
66880;BME280;53789;51.392;10.234;2023-02-14T01:40:46;100186.38;;;-0.30;80.87
66880;BME280;53789;51.392;10.234;2023-02-14T01:41:06;100179.28;;;-0.31;80.83
66880;BME280;53789;51.392;10.234;2023-02-14T01:41:31;100180.13;;;-0.31;80.58
66880;BME280;53789;51.392;10.234;2023-02-14T01:41:51;100184.69;;;-0.31;80.18
66880;BME280;53789;51.392;10.234;2023-02-14T01:42:12;100182.00;;;-0.31;80.45
66880;BME280;53789;51.392;10.234;2023-02-14T01:42:33;100189.09;;;-0.30;79.86
66880;BME280;53789;51.392;10.234;2023-02-14T01:42:53;100190.09;;;-0.31;79.47
66880;BME280;53789;51.392;10.234;2023-02-14T01:43:14;100187.41;;;-0.31;80.13
66880;BME280;53789;51.392;10.234;2023-02-14T01:45:13;100188.22;;;-0.31;80.01
66880;BME280;53789;51.392;10.234;2023-02-14T01:45:34;100193.81;;;-0.32;80.53
66880;BME280;53789;51.392;10.234;2023-02-14T01:45:54;100179.47;;;-0.33;80.60
66880;BME280;53789;51.392;10.234;2023-02-14T01:46:14;100186.75;;;-0.33;80.50
66880;BME280;53789;51.392;10.234;2023-02-14T01:46:36;100194.00;;;-0.34;79.91
66880;BME280;53789;51.392;10.234;2023-02-14T01:47:01;100185.91;;;-0.34;80.64
66880;BME280;53789;51.392;10.234;2023-02-14T01:47:23;100190.28;;;-0.33;79.64
66880;BME280;53789;51.392;10.234;2023-02-14T01:47:51;100188.41;;;-0.32;80.55
66880;BME280;53789;51.392;10.234;2023-02-14T01:48:14;100190.09;;;-0.31;79.93
66880;BME280;53789;51.392;10.234;2023-02-14T01:48:35;100200.91;;;-0.31;80.26
66880;BME280;53789;51.392;10.234;2023-02-14T01:49:28;100192.81;;;-0.31;80.74
66880;BME280;53789;51.392;10.234;2023-02-14T01:50:02;100192.63;;;-0.30;80.63
66880;BME280;53789;51.392;10.234;2023-02-14T01:50:34;100190.75;;;-0.29;80.48